sensor_id;sensor_type;location;lat;lon;timestamp;pressure;altitude;pressure_sealevel;temperature;humidity
73383;BME280;61600;48.126;11.542;2024-02-26T00:02:00;93920.16;;;6.67;59.93
73383;BME280;61600;48.126;11.542;2024-02-26T00:04:26;93916.28;;;6.60;59.45
73383;BME280;61600;48.126;11.542;2024-02-26T00:06:52;93920.38;;;6.57;59.32
73383;BME280;61600;48.126;11.542;2024-02-26T00:09:19;93920.22;;;6.76;59.26
73383;BME280;61600;48.126;11.542;2024-02-26T00:11:45;93911.03;;;6.77;59.29
73383;BME280;61600;48.126;11.542;2024-02-26T00:14:13;93919.06;;;6.68;58.12
73383;BME280;61600;48.126;11.542;2024-02-26T00:16:43;93908.06;;;6.65;58.96
73383;BME280;61600;48.126;11.542;2024-02-26T00:19:10;93911.69;;;6.60;58.36
73383;BME280;61600;48.126;11.542;2024-02-26T00:21:42;93927.56;;;6.62;58.50
73383;BME280;61600;48.126;11.542;2024-02-26T00:24:08;93928.28;;;6.67;58.63
73383;BME280;61600;48.126;11.542;2024-02-26T00:26:34;93903.88;;;6.59;58.32
73383;BME280;61600;48.126;11.542;2024-02-26T00:28:59;93910.59;;;6.61;57.70
73383;BME280;61600;48.126;11.542;2024-02-26T00:31:25;93905.75;;;6.58;58.07
73383;BME280;61600;48.126;11.542;2024-02-26T00:33:51;93908.28;;;6.68;57.60
73383;BME280;61600;48.126;11.542;2024-02-26T00:36:17;93910.47;;;6.52;58.13
73383;BME280;61600;48.126;11.542;2024-02-26T00:38:44;93905.84;;;6.67;57.99
73383;BME280;61600;48.126;11.542;2024-02-26T00:41:11;93909.16;;;6.64;58.07
73383;BME280;61600;48.126;11.542;2024-02-26T00:43:37;93909.75;;;6.74;58.12
73383;BME280;61600;48.126;11.542;2024-02-26T00:46:06;93894.28;;;6.52;57.31
73383;BME280;61600;48.126;11.542;2024-02-26T00:48:31;93910.47;;;6.52;57.54
73383;BME280;61600;48.126;11.542;2024-02-26T00:50:57;93894.88;;;6.49;58.03
73383;BME280;61600;48.126;11.542;2024-02-26T00:53:23;93895.56;;;6.55;57.87
73383;BME280;61600;48.126;11.542;2024-02-26T00:55:53;93890.16;;;6.55;57.77
73383;BME280;61600;48.126;11.542;2024-02-26T00:58:20;93904.47;;;6.56;58.17
73383;BME280;61600;48.126;11.542;2024-02-26T01:00:46;93889.16;;;6.51;57.86
73383;BME280;61600;48.126;11.542;2024-02-26T01:03:11;93906.84;;;6.71;57.98
73383;BME280;61600;48.126;11.542;2024-02-26T01:05:37;93899.84;;;6.70;57.97
73383;BME280;61600;48.126;11.542;2024-02-26T01:08:04;93898.25;;;6.69;57.17
73383;BME280;61600;48.126;11.542;2024-02-26T01:10:29;93898.13;;;6.74;57.48
73383;BME280;61600;48.126;11.542;2024-02-26T01:12:55;93907.34;;;6.73;57.25
73383;BME280;61600;48.126;11.542;2024-02-26T01:15:20;93907.66;;;6.71;57.33
73383;BME280;61600;48.126;11.542;2024-02-26T01:17:49;93903.44;;;6.79;57.23
73383;BME280;61600;48.126;11.542;2024-02-26T01:20:16;93901.44;;;6.71;57.11
73383;BME280;61600;48.126;11.542;2024-02-26T01:22:42;93904.22;;;6.79;57.18
73383;BME280;61600;48.126;11.542;2024-02-26T01:25:08;93896.75;;;6.63;57.56
73383;BME280;61600;48.126;11.542;2024-02-26T01:27:35;93897.56;;;6.63;57.76
73383;BME280;61600;48.126;11.542;2024-02-26T01:30:05;93890.59;;;6.48;57.46
73383;BME280;61600;48.126;11.542;2024-02-26T01:32:31;93893.78;;;6.50;58.33
73383;BME280;61600;48.126;11.542;2024-02-26T01:34:57;93894.97;;;6.44;57.89
73383;BME280;61600;48.126;11.542;2024-02-26T01:37:23;93900.00;;;6.37;58.05
73383;BME280;61600;48.126;11.542;2024-02-26T01:39:49;93904.00;;;6.26;58.11
73383;BME280;61600;48.126;11.542;2024-02-26T01:42:15;93901.81;;;6.01;58.85
73383;BME280;61600;48.126;11.542;2024-02-26T01:44:40;93900.13;;;6.05;58.42
73383;BME280;61600;48.126;11.542;2024-02-26T01:47:10;93903.03;;;6.09;58.80
73383;BME280;61600;48.126;11.542;2024-02-26T01:49:36;93903.78;;;5.95;58.91
73383;BME280;61600;48.126;11.542;2024-02-26T01:52:03;93900.00;;;6.10;59.21
73383;BME280;61600;48.126;11.542;2024-02-26T01:54:30;93904.59;;;6.10;59.28
73383;BME280;61600;48.126;11.542;2024-02-26T01:56:57;93904.91;;;6.22;59.07
73383;BME280;61600;48.126;11.542;2024-02-26T01:59:23;93899.81;;;6.20;58.63
73383;BME280;61600;48.126;11.542;2024-02-26T02:01:54;93885.41;;;5.84;58.90
73383;BME280;61600;48.126;11.542;2024-02-26T02:04:22;93887.94;;;6.08;59.34
73383;BME280;61600;48.126;11.542;2024-02-26T02:06:52;93887.59;;;6.09;59.04
73383;BME280;61600;48.126;11.542;2024-02-26T02:09:18;93891.63;;;5.98;59.35
73383;BME280;61600;48.126;11.542;2024-02-26T02:11:43;93875.53;;;5.93;58.99
73383;BME280;61600;48.126;11.542;2024-02-26T02:14:10;93876.22;;;5.98;58.72
73383;BME280;61600;48.126;11.542;2024-02-26T02:16:36;93880.03;;;5.97;59.30
73383;BME280;61600;48.126;11.542;2024-02-26T02:19:03;93878.81;;;5.90;59.55
73383;BME280;61600;48.126;11.542;2024-02-26T02:21:28;93879.63;;;5.90;59.88
73383;BME280;61600;48.126;11.542;2024-02-26T02:23:54;93878.22;;;5.93;59.61
73383;BME280;61600;48.126;11.542;2024-02-26T02:26:20;93868.22;;;6.07;59.21
73383;BME280;61600;48.126;11.542;2024-02-26T02:28:46;93871.34;;;6.00;58.68
73383;BME280;61600;48.126;11.542;2024-02-26T02:31:14;93870.94;;;5.93;59.32
73383;BME280;61600;48.126;11.542;2024-02-26T02:33:40;93868.13;;;5.98;59.03
73383;BME280;61600;48.126;11.542;2024-02-26T02:36:06;93868.72;;;5.95;59.30
73383;BME280;61600;48.126;11.542;2024-02-26T02:38:36;93867.03;;;5.99;58.76
73383;BME280;61600;48.126;11.542;2024-02-26T02:41:04;93867.84;;;6.00;58.74
73383;BME280;61600;48.126;11.542;2024-02-26T02:43:30;93872.59;;;5.76;59.21
73383;BME280;61600;48.126;11.542;2024-02-26T02:45:56;93869.84;;;5.94;59.28
73383;BME280;61600;48.126;11.542;2024-02-26T02:48:21;93876.63;;;5.92;58.50
73383;BME280;61600;48.126;11.542;2024-02-26T02:50:47;93875.78;;;5.78;58.70
73383;BME280;61600;48.126;11.542;2024-02-26T02:53:12;93872.19;;;5.69;59.02
73383;BME280;61600;48.126;11.542;2024-02-26T02:55:38;93873.81;;;5.83;59.25
73383;BME280;61600;48.126;11.542;2024-02-26T02:58:03;93873.34;;;5.49;59.27
73383;BME280;61600;48.126;11.542;2024-02-26T03:00:30;93878.88;;;5.71;59.89
73383;BME280;61600;48.126;11.542;2024-02-26T03:02:56;93881.78;;;5.75;58.72
73383;BME280;61600;48.126;11.542;2024-02-26T03:05:21;93875.88;;;5.59;58.79
73383;BME280;61600;48.126;11.542;2024-02-26T03:07:47;93875.38;;;5.71;57.96
73383;BME280;61600;48.126;11.542;2024-02-26T03:10:12;93862.09;;;5.74;58.86
73383;BME280;61600;48.126;11.542;2024-02-26T03:12:39;93862.88;;;5.61;59.16
73383;BME280;61600;48.126;11.542;2024-02-26T03:15:04;93860.59;;;5.68;59.60
73383;BME280;61600;48.126;11.542;2024-02-26T03:17:30;93855.00;;;5.78;59.62
73383;BME280;61600;48.126;11.542;2024-02-26T03:19:57;93851.41;;;5.83;58.87
73383;BME280;61600;48.126;11.542;2024-02-26T03:22:24;93862.00;;;5.66;59.67
73383;BME280;61600;48.126;11.542;2024-02-26T03:24:49;93855.00;;;5.78;59.67
73383;BME280;61600;48.126;11.542;2024-02-26T03:27:15;93857.13;;;5.95;58.90
73383;BME280;61600;48.126;11.542;2024-02-26T03:29:41;93857.72;;;5.92;58.29
73383;BME280;61600;48.126;11.542;2024-02-26T03:32:07;93859.72;;;6.00;58.49
73383;BME280;61600;48.126;11.542;2024-02-26T03:34:33;93861.53;;;6.05;57.91
73383;BME280;61600;48.126;11.542;2024-02-26T03:37:04;93864.78;;;5.74;58.11
73383;BME280;61600;48.126;11.542;2024-02-26T03:39:30;93869.94;;;5.89;59.24
73383;BME280;61600;48.126;11.542;2024-02-26T03:41:55;93869.13;;;5.89;58.18
73383;BME280;61600;48.126;11.542;2024-02-26T03:44:21;93870.38;;;5.78;58.17
73383;BME280;61600;48.126;11.542;2024-02-26T03:46:46;93870.50;;;5.73;58.12
73383;BME280;61600;48.126;11.542;2024-02-26T03:49:12;93864.97;;;5.64;59.18
73383;BME280;61600;48.126;11.542;2024-02-26T03:51:38;93859.00;;;5.81;58.94
73383;BME280;61600;48.126;11.542;2024-02-26T03:54:04;93850.25;;;5.89;58.32
73383;BME280;61600;48.126;11.542;2024-02-26T03:56:30;93853.75;;;5.89;58.37
73383;BME280;61600;48.126;11.542;2024-02-26T03:58:55;93855.16;;;5.87;57.68
73383;BME280;61600;48.126;11.542;2024-02-26T04:01:22;93858.03;;;5.90;58.32
73383;BME280;61600;48.126;11.542;2024-02-26T04:03:47;93864.50;;;5.76;57.26
73383;BME280;61600;48.126;11.542;2024-02-26T04:06:13;93862.50;;;5.81;58.43
73383;BME280;61600;48.126;11.542;2024-02-26T04:08:44;93854.75;;;5.93;57.41
73383;BME280;61600;48.126;11.542;2024-02-26T04:11:10;93853.75;;;5.89;57.62
73383;BME280;61600;48.126;11.542;2024-02-26T04:13:36;93848.66;;;6.01;57.77
73383;BME280;61600;48.126;11.542;2024-02-26T04:16:05;93846.25;;;5.86;58.14
73383;BME280;61600;48.126;11.542;2024-02-26T04:18:32;93853.25;;;5.87;57.43
73383;BME280;61600;48.126;11.542;2024-02-26T04:20:58;93857.25;;;5.90;58.20
73383;BME280;61600;48.126;11.542;2024-02-26T04:23:24;93862.69;;;5.85;57.80
73383;BME280;61600;48.126;11.542;2024-02-26T04:25:50;93855.72;;;5.84;57.78
73383;BME280;61600;48.126;11.542;2024-02-26T04:28:15;93867.28;;;5.84;57.36
73383;BME280;61600;48.126;11.542;2024-02-26T04:30:41;93864.09;;;5.82;57.68
73383;BME280;61600;48.126;11.542;2024-02-26T04:33:07;93855.41;;;5.72;57.27
73383;BME280;61600;48.126;11.542;2024-02-26T04:35:33;93861.06;;;5.70;58.38
73383;BME280;61600;48.126;11.542;2024-02-26T04:38:00;93869.28;;;5.79;57.87
73383;BME280;61600;48.126;11.542;2024-02-26T04:40:26;93868.81;;;5.77;58.07
73383;BME280;61600;48.126;11.542;2024-02-26T04:42:51;93862.00;;;5.66;57.60
73383;BME280;61600;48.126;11.542;2024-02-26T04:45:17;93867.59;;;5.69;57.18
73383;BME280;61600;48.126;11.542;2024-02-26T04:47:43;93865.09;;;5.73;57.28
73383;BME280;61600;48.126;11.542;2024-02-26T04:50:08;93868.00;;;5.63;57.34
73383;BME280;61600;48.126;11.542;2024-02-26T04:52:34;93868.25;;;5.47;58.09
73383;BME280;61600;48.126;11.542;2024-02-26T04:54:59;93864.28;;;5.59;57.47
73383;BME280;61600;48.126;11.542;2024-02-26T04:57:27;93864.50;;;5.62;57.82
73383;BME280;61600;48.126;11.542;2024-02-26T04:59:53;93865.28;;;5.63;57.58
73383;BME280;61600;48.126;11.542;2024-02-26T05:02:18;93865.56;;;5.47;57.85
73383;BME280;61600;48.126;11.542;2024-02-26T05:04:44;93866.19;;;5.58;57.88
73383;BME280;61600;48.126;11.542;2024-02-26T05:07:10;93865.09;;;5.73;57.95
73383;BME280;61600;48.126;11.542;2024-02-26T05:09:35;93866.47;;;5.70;57.19
73383;BME280;61600;48.126;11.542;2024-02-26T05:12:01;93863.28;;;5.82;56.72
73383;BME280;61600;48.126;11.542;2024-02-26T05:14:27;93864.59;;;5.84;57.06
73383;BME280;61600;48.126;11.542;2024-02-26T05:16:53;93866.13;;;5.90;56.84
73383;BME280;61600;48.126;11.542;2024-02-26T05:19:18;93856.94;;;5.91;57.00
73383;BME280;61600;48.126;11.542;2024-02-26T05:21:44;93864.72;;;6.07;56.45
73383;BME280;61600;48.126;11.542;2024-02-26T05:24:10;93874.91;;;6.10;56.28
73383;BME280;61600;48.126;11.542;2024-02-26T05:26:35;93878.63;;;6.14;55.78
73383;BME280;61600;48.126;11.542;2024-02-26T05:29:01;93867.41;;;6.20;55.81
73383;BME280;61600;48.126;11.542;2024-02-26T05:31:26;93873.31;;;6.22;55.92
73383;BME280;61600;48.126;11.542;2024-02-26T05:33:52;93877.59;;;6.23;55.70
73383;BME280;61600;48.126;11.542;2024-02-26T05:36:22;93878.91;;;6.26;55.54
73383;BME280;61600;48.126;11.542;2024-02-26T05:38:48;93880.41;;;6.32;56.10
73383;BME280;61600;48.126;11.542;2024-02-26T05:41:17;93880.91;;;6.34;55.68
73383;BME280;61600;48.126;11.542;2024-02-26T05:43:54;93888.72;;;6.35;55.48
73383;BME280;61600;48.126;11.542;2024-02-26T05:46:21;93889.09;;;6.42;56.09
73383;BME280;61600;48.126;11.542;2024-02-26T05:48:51;93878.09;;;6.39;55.27
73383;BME280;61600;48.126;11.542;2024-02-26T05:51:17;93887.50;;;6.41;54.95
73383;BME280;61600;48.126;11.542;2024-02-26T05:53:43;93884.38;;;6.48;55.19
73383;BME280;61600;48.126;11.542;2024-02-26T05:56:09;93880.47;;;6.40;55.10
73383;BME280;61600;48.126;11.542;2024-02-26T05:58:37;93879.59;;;6.45;54.60
73383;BME280;61600;48.126;11.542;2024-02-26T06:01:04;93884.38;;;6.48;55.22
73383;BME280;61600;48.126;11.542;2024-02-26T06:03:29;93883.75;;;6.51;54.53
73383;BME280;61600;48.126;11.542;2024-02-26T06:05:56;93881.25;;;6.54;55.00
73383;BME280;61600;48.126;11.542;2024-02-26T06:08:21;93885.09;;;6.53;55.13
73383;BME280;61600;48.126;11.542;2024-02-26T06:10:47;93898.84;;;6.66;54.81
73383;BME280;61600;48.126;11.542;2024-02-26T06:13:13;93903.53;;;6.74;54.47
73383;BME280;61600;48.126;11.542;2024-02-26T06:15:38;93899.75;;;6.75;54.01
73383;BME280;61600;48.126;11.542;2024-02-26T06:18:04;93906.44;;;6.77;53.91
73383;BME280;61600;48.126;11.542;2024-02-26T06:20:30;93908.91;;;6.87;54.18
73383;BME280;61600;48.126;11.542;2024-02-26T06:22:55;93906.34;;;6.82;53.59
73383;BME280;61600;48.126;11.542;2024-02-26T06:25:21;93913.09;;;6.93;53.72
73383;BME280;61600;48.126;11.542;2024-02-26T06:27:46;93921.81;;;6.90;53.61
73383;BME280;61600;48.126;11.542;2024-02-26T06:30:12;93917.41;;;6.94;53.64
73383;BME280;61600;48.126;11.542;2024-02-26T06:32:38;93925.41;;;6.99;53.76
73383;BME280;61600;48.126;11.542;2024-02-26T06:35:04;93927.50;;;7.02;53.80
73383;BME280;61600;48.126;11.542;2024-02-26T06:37:35;93924.00;;;7.02;53.49
73383;BME280;61600;48.126;11.542;2024-02-26T06:40:02;93935.97;;;7.10;53.55
73383;BME280;61600;48.126;11.542;2024-02-26T06:42:40;93941.34;;;7.23;53.61
73383;BME280;61600;48.126;11.542;2024-02-26T06:45:06;93944.41;;;7.30;53.38
73383;BME280;61600;48.126;11.542;2024-02-26T06:47:32;93947.69;;;7.41;52.56
73383;BME280;61600;48.126;11.542;2024-02-26T06:49:59;93944.84;;;7.46;52.61
73383;BME280;61600;48.126;11.542;2024-02-26T06:52:26;93954.75;;;7.50;52.57
73383;BME280;61600;48.126;11.542;2024-02-26T06:54:55;93957.19;;;7.61;52.01
73383;BME280;61600;48.126;11.542;2024-02-26T06:57:20;93963.66;;;7.51;52.05
73383;BME280;61600;48.126;11.542;2024-02-26T06:59:46;93950.94;;;7.51;52.15
73383;BME280;61600;48.126;11.542;2024-02-26T07:02:13;93958.63;;;7.58;52.12
73383;BME280;61600;48.126;11.542;2024-02-26T07:04:39;93963.22;;;7.58;52.12
73383;BME280;61600;48.126;11.542;2024-02-26T07:07:04;93963.84;;;7.54;51.87
73383;BME280;61600;48.126;11.542;2024-02-26T07:09:30;93970.91;;;7.64;52.05
73383;BME280;61600;48.126;11.542;2024-02-26T07:11:56;93966.69;;;7.72;51.75
73383;BME280;61600;48.126;11.542;2024-02-26T07:14:22;93966.84;;;7.75;51.73
73383;BME280;61600;48.126;11.542;2024-02-26T07:16:50;93959.78;;;7.88;51.58
73383;BME280;61600;48.126;11.542;2024-02-26T07:19:15;93959.53;;;7.98;51.12
73383;BME280;61600;48.126;11.542;2024-02-26T07:21:41;93960.50;;;8.02;50.91
73383;BME280;61600;48.126;11.542;2024-02-26T07:24:07;93953.84;;;8.08;50.64
73383;BME280;61600;48.126;11.542;2024-02-26T07:26:33;93961.16;;;8.08;51.01
73383;BME280;61600;48.126;11.542;2024-02-26T07:29:00;93960.19;;;8.03;50.57
73383;BME280;61600;48.126;11.542;2024-02-26T07:31:27;93967.75;;;8.24;50.52
73383;BME280;61600;48.126;11.542;2024-02-26T07:33:53;93958.44;;;8.30;50.28
73383;BME280;61600;48.126;11.542;2024-02-26T07:36:20;93969.94;;;7.82;51.28
73383;BME280;61600;48.126;11.542;2024-02-26T07:38:46;93963.69;;;8.04;51.01
73383;BME280;61600;48.126;11.542;2024-02-26T07:41:11;93967.81;;;8.01;50.43
73383;BME280;61600;48.126;11.542;2024-02-26T07:43:37;93969.47;;;8.33;50.41
73383;BME280;61600;48.126;11.542;2024-02-26T07:46:03;93973.63;;;8.48;49.76
73383;BME280;61600;48.126;11.542;2024-02-26T07:48:30;93971.31;;;8.64;49.86
73383;BME280;61600;48.126;11.542;2024-02-26T07:51:00;93973.84;;;8.60;49.87
73383;BME280;61600;48.126;11.542;2024-02-26T07:53:25;93983.44;;;8.66;49.81
73383;BME280;61600;48.126;11.542;2024-02-26T07:55:51;93991.78;;;8.78;49.68
73383;BME280;61600;48.126;11.542;2024-02-26T07:58:20;93992.06;;;8.77;49.70
73383;BME280;61600;48.126;11.542;2024-02-26T08:00:45;93982.88;;;8.86;49.76
73383;BME280;61600;48.126;11.542;2024-02-26T08:03:12;93989.91;;;8.96;49.35
73383;BME280;61600;48.126;11.542;2024-02-26T08:05:41;93985.94;;;9.02;48.83
73383;BME280;61600;48.126;11.542;2024-02-26T08:08:09;93986.75;;;9.11;48.59
73383;BME280;61600;48.126;11.542;2024-02-26T08:10:34;93982.44;;;9.19;48.46
73383;BME280;61600;48.126;11.542;2024-02-26T08:13:00;93986.59;;;9.16;49.10
73383;BME280;61600;48.126;11.542;2024-02-26T08:15:34;93983.25;;;9.36;48.92
73383;BME280;61600;48.126;11.542;2024-02-26T08:18:03;93978.81;;;9.49;48.50
73383;BME280;61600;48.126;11.542;2024-02-26T08:20:29;93981.03;;;9.47;47.74
73383;BME280;61600;48.126;11.542;2024-02-26T08:22:56;93978.66;;;9.54;47.42
73383;BME280;61600;48.126;11.542;2024-02-26T08:25:22;93976.41;;;9.73;47.67
73383;BME280;61600;48.126;11.542;2024-02-26T08:27:48;93969.38;;;9.81;47.55
73383;BME280;61600;48.126;11.542;2024-02-26T08:30:15;93973.19;;;9.97;47.02
73383;BME280;61600;48.126;11.542;2024-02-26T08:32:45;93979.88;;;9.99;46.73
73383;BME280;61600;48.126;11.542;2024-02-26T08:35:11;93974.00;;;9.97;46.51
73383;BME280;61600;48.126;11.542;2024-02-26T08:37:37;93996.97;;;10.00;46.33
73383;BME280;61600;48.126;11.542;2024-02-26T08:40:03;94005.13;;;10.09;45.58
73383;BME280;61600;48.126;11.542;2024-02-26T08:42:29;93996.22;;;9.91;46.21
73383;BME280;61600;48.126;11.542;2024-02-26T08:44:55;93999.06;;;10.12;46.08
73383;BME280;61600;48.126;11.542;2024-02-26T08:47:22;94004.81;;;10.19;46.24
73383;BME280;61600;48.126;11.542;2024-02-26T08:49:49;94007.19;;;10.29;45.96
73383;BME280;61600;48.126;11.542;2024-02-26T08:52:15;94001.59;;;10.25;46.45
73383;BME280;61600;48.126;11.542;2024-02-26T08:54:41;94004.94;;;10.39;45.98
73383;BME280;61600;48.126;11.542;2024-02-26T08:57:06;94002.06;;;10.36;46.04
73383;BME280;61600;48.126;11.542;2024-02-26T08:59:32;94005.38;;;10.50;45.97
73383;BME280;61600;48.126;11.542;2024-02-26T09:01:57;93998.19;;;10.45;45.26
73383;BME280;61600;48.126;11.542;2024-02-26T09:04:23;94000.56;;;10.56;45.52
73383;BME280;61600;48.126;11.542;2024-02-26T09:06:48;93998.31;;;10.58;45.67
73383;BME280;61600;48.126;11.542;2024-02-26T09:09:16;93997.97;;;10.68;45.74
73383;BME280;61600;48.126;11.542;2024-02-26T09:11:42;93995.06;;;10.73;45.52
73383;BME280;61600;48.126;11.542;2024-02-26T09:14:08;93998.53;;;10.82;45.43
73383;BME280;61600;48.126;11.542;2024-02-26T09:16:33;93993.38;;;10.89;44.92
73383;BME280;61600;48.126;11.542;2024-02-26T09:18:59;93993.50;;;11.01;43.89
73383;BME280;61600;48.126;11.542;2024-02-26T09:21:25;93993.97;;;11.03;43.82
73383;BME280;61600;48.126;11.542;2024-02-26T09:23:52;93994.97;;;11.19;43.72
73383;BME280;61600;48.126;11.542;2024-02-26T09:26:18;93992.88;;;11.25;43.38
73383;BME280;61600;48.126;11.542;2024-02-26T09:28:44;93989.50;;;11.28;43.47
73383;BME280;61600;48.126;11.542;2024-02-26T09:31:10;93993.56;;;11.42;43.50
73383;BME280;61600;48.126;11.542;2024-02-26T09:33:37;93992.09;;;11.45;43.79
73383;BME280;61600;48.126;11.542;2024-02-26T09:36:04;93994.81;;;11.45;43.52
73383;BME280;61600;48.126;11.542;2024-02-26T09:38:31;93989.50;;;11.48;43.72
73383;BME280;61600;48.126;11.542;2024-02-26T09:41:02;93990.09;;;11.54;43.32
73383;BME280;61600;48.126;11.542;2024-02-26T09:43:34;93988.06;;;11.72;43.05
73383;BME280;61600;48.126;11.542;2024-02-26T09:46:06;93990.22;;;11.87;42.11
73383;BME280;61600;48.126;11.542;2024-02-26T09:48:35;93984.03;;;11.98;42.16
73383;BME280;61600;48.126;11.542;2024-02-26T09:51:02;93980.19;;;12.12;41.91
73383;BME280;61600;48.126;11.542;2024-02-26T09:53:28;93976.63;;;12.32;42.02
73383;BME280;61600;48.126;11.542;2024-02-26T09:55:55;93975.06;;;12.31;42.03
73383;BME280;61600;48.126;11.542;2024-02-26T09:58:21;93972.22;;;12.39;41.78
73383;BME280;61600;48.126;11.542;2024-02-26T10:00:51;93986.66;;;12.40;41.60
73383;BME280;61600;48.126;11.542;2024-02-26T10:03:21;93974.31;;;12.55;42.19
73383;BME280;61600;48.126;11.542;2024-02-26T10:05:49;93981.81;;;12.58;42.14
73383;BME280;61600;48.126;11.542;2024-02-26T10:08:16;93978.41;;;12.48;42.23
73383;BME280;61600;48.126;11.542;2024-02-26T10:10:44;93990.38;;;12.35;42.48
73383;BME280;61600;48.126;11.542;2024-02-26T10:13:10;93983.84;;;12.48;42.56
73383;BME280;61600;48.126;11.542;2024-02-26T10:15:37;93979.84;;;12.34;42.58
73383;BME280;61600;48.126;11.542;2024-02-26T10:18:07;93978.72;;;12.47;41.92
73383;BME280;61600;48.126;11.542;2024-02-26T10:20:33;93978.91;;;12.42;42.68
73383;BME280;61600;48.126;11.542;2024-02-26T10:23:02;93974.31;;;12.55;43.14
73383;BME280;61600;48.126;11.542;2024-02-26T10:25:28;93976.84;;;12.72;43.19
73383;BME280;61600;48.126;11.542;2024-02-26T10:27:54;93974.13;;;12.84;42.53
73383;BME280;61600;48.126;11.542;2024-02-26T10:30:21;93979.81;;;12.91;41.70
73383;BME280;61600;48.126;11.542;2024-02-26T10:32:50;93971.38;;;12.96;41.99
73383;BME280;61600;48.126;11.542;2024-02-26T10:35:16;93960.59;;;12.99;41.40
73383;BME280;61600;48.126;11.542;2024-02-26T10:37:43;93956.97;;;13.20;40.93
73383;BME280;61600;48.126;11.542;2024-02-26T10:40:13;93957.44;;;13.22;40.68
73383;BME280;61600;48.126;11.542;2024-02-26T10:42:39;93950.25;;;13.29;40.21
73383;BME280;61600;48.126;11.542;2024-02-26T10:45:06;93956.38;;;13.38;39.86
73383;BME280;61600;48.126;11.542;2024-02-26T10:47:33;93957.63;;;13.41;40.06
73383;BME280;61600;48.126;11.542;2024-02-26T10:50:04;93955.31;;;13.55;40.17
73383;BME280;61600;48.126;11.542;2024-02-26T10:52:35;93962.59;;;13.63;40.64
73383;BME280;61600;48.126;11.542;2024-02-26T10:55:03;93963.41;;;13.51;40.10
73383;BME280;61600;48.126;11.542;2024-02-26T10:57:40;93963.88;;;13.54;39.82
73383;BME280;61600;48.126;11.542;2024-02-26T11:00:10;93967.03;;;13.68;39.49
73383;BME280;61600;48.126;11.542;2024-02-26T11:02:40;93971.09;;;13.86;39.22
73383;BME280;61600;48.126;11.542;2024-02-26T11:05:06;93975.59;;;13.94;39.02
73383;BME280;61600;48.126;11.542;2024-02-26T11:07:34;93981.31;;;14.17;38.88
73383;BME280;61600;48.126;11.542;2024-02-26T11:10:03;93984.78;;;14.29;38.74
73383;BME280;61600;48.126;11.542;2024-02-26T11:12:32;93987.88;;;14.28;37.97
73383;BME280;61600;48.126;11.542;2024-02-26T11:15:01;93986.91;;;14.20;37.98
73383;BME280;61600;48.126;11.542;2024-02-26T11:17:28;94001.31;;;14.33;38.09
73383;BME280;61600;48.126;11.542;2024-02-26T11:19:58;94003.13;;;14.29;38.51
73383;BME280;61600;48.126;11.542;2024-02-26T11:22:25;94000.31;;;14.25;38.07
73383;BME280;61600;48.126;11.542;2024-02-26T11:24:56;94005.53;;;14.30;38.13
73383;BME280;61600;48.126;11.542;2024-02-26T11:27:30;93998.66;;;14.48;38.28
73383;BME280;61600;48.126;11.542;2024-02-26T11:29:57;93993.72;;;14.54;37.76
73383;BME280;61600;48.126;11.542;2024-02-26T11:32:29;94006.34;;;14.59;38.21
73383;BME280;61600;48.126;11.542;2024-02-26T11:34:58;94000.88;;;14.74;37.81
73383;BME280;61600;48.126;11.542;2024-02-26T11:37:26;93996.66;;;14.77;36.49
73383;BME280;61600;48.126;11.542;2024-02-26T11:39:52;93988.38;;;14.73;36.71
73383;BME280;61600;48.126;11.542;2024-02-26T11:42:23;93983.22;;;14.56;36.59
73383;BME280;61600;48.126;11.542;2024-02-26T11:44:50;93987.22;;;14.90;36.45
73383;BME280;61600;48.126;11.542;2024-02-26T11:47:21;93985.00;;;15.11;35.55
73383;BME280;61600;48.126;11.542;2024-02-26T11:49:49;93986.50;;;15.24;35.94
73383;BME280;61600;48.126;11.542;2024-02-26T11:52:16;93978.44;;;15.31;35.87
73383;BME280;61600;48.126;11.542;2024-02-26T11:57:27;93969.13;;;15.67;34.76
73383;BME280;61600;48.126;11.542;2024-02-26T12:05:18;93966.94;;;16.49;33.59
73383;BME280;61600;48.126;11.542;2024-02-26T12:08:02;93969.66;;;16.69;33.29
73383;BME280;61600;48.126;11.542;2024-02-26T12:10:35;93966.44;;;16.86;32.89
73383;BME280;61600;48.126;11.542;2024-02-26T12:13:08;93970.34;;;17.08;32.08
73383;BME280;61600;48.126;11.542;2024-02-26T12:18:06;93954.53;;;17.01;32.05
73383;BME280;61600;48.126;11.542;2024-02-26T12:20:41;93955.50;;;17.12;31.43
73383;BME280;61600;48.126;11.542;2024-02-26T12:23:07;93954.66;;;16.85;32.14
73383;BME280;61600;48.126;11.542;2024-02-26T12:25:33;93960.25;;;16.70;31.44
73383;BME280;61600;48.126;11.542;2024-02-26T12:27:59;93963.63;;;16.82;31.88
73383;BME280;61600;48.126;11.542;2024-02-26T12:30:25;93973.25;;;16.73;32.80
73383;BME280;61600;48.126;11.542;2024-02-26T12:32:52;93976.50;;;17.01;32.40
73383;BME280;61600;48.126;11.542;2024-02-26T12:35:23;93989.38;;;17.42;31.75
73383;BME280;61600;48.126;11.542;2024-02-26T12:37:49;93990.97;;;17.43;31.56
73383;BME280;61600;48.126;11.542;2024-02-26T12:40:16;93994.97;;;17.49;31.38
73383;BME280;61600;48.126;11.542;2024-02-26T12:42:42;93999.31;;;17.51;31.93
73383;BME280;61600;48.126;11.542;2024-02-26T12:45:10;93991.91;;;17.06;31.55
73383;BME280;61600;48.126;11.542;2024-02-26T12:47:40;93999.75;;;17.07;32.00
73383;BME280;61600;48.126;11.542;2024-02-26T12:50:07;93995.81;;;17.05;32.96
73383;BME280;61600;48.126;11.542;2024-02-26T12:52:34;93998.25;;;17.10;32.57
73383;BME280;61600;48.126;11.542;2024-02-26T12:55:05;93998.75;;;17.38;31.89
73383;BME280;61600;48.126;11.542;2024-02-26T12:57:39;93998.91;;;17.48;31.68
73383;BME280;61600;48.126;11.542;2024-02-26T13:00:18;94015.56;;;17.59;31.81
73383;BME280;61600;48.126;11.542;2024-02-26T13:02:46;94016.88;;;17.65;31.60
73383;BME280;61600;48.126;11.542;2024-02-26T13:05:19;94009.00;;;17.90;30.91
73383;BME280;61600;48.126;11.542;2024-02-26T13:07:46;94012.91;;;17.89;31.25